Time;durP1;ratioP1;P1;durP2;ratioP2;P2;SDS_P1;SDS_P2;PMS_P1;PMS_P2;Temp;Humidity;BMP_temperature;BMP_pressure;BME280_temperature;BME280_humidity;BME280_pressure;Samples;Min_cycle;Max_cycle;Signal;HPM_P1;HPM_P2
2021/04/11 00:00:23;;;;;;;;;;;231.30;1382.40;;;;;;5073458;28;20485;-78
2021/04/11 00:02:49;;;;;;;19.20;10.18;;;231.20;1382.40;;;;;;5073507;28;20285;-79
2021/04/11 00:05:17;;;;;;;20.92;9.15;;;231.20;1382.40;;;;;;5072297;28;20029;-79
2021/04/11 00:07:42;;;;;;;19.02;9.60;;;231.20;1408.00;;;;;;5072319;28;20119;-78
2021/04/11 00:10:13;;;;;;;;;;;231.20;1408.00;;;;;;5072797;28;20127;-77
2021/04/11 00:12:38;;;;;;;22.45;9.02;;;231.20;1408.00;;;;;;5089254;28;19995;-78
2021/04/11 00:15:05;;;;;;;;;;;231.20;1408.00;;;;;;5072839;28;20115;-79
2021/04/11 00:17:30;;;;;;;16.92;7.78;;;256.30;1382.40;;;;;;5072414;28;19908;-78
2021/04/11 00:19:56;;;;;;;;;;;231.20;1382.40;;;;;;5072493;28;20418;-77
2021/04/11 00:22:21;;;;;;;18.48;7.95;;;231.20;1408.00;;;;;;5072118;28;19940;-79
2021/04/11 00:24:47;;;;;;;;;;;231.10;1408.00;;;;;;5072314;28;20047;-79
2021/04/11 00:27:13;;;;;;;16.85;7.50;;;231.10;1408.00;;;;;;5075023;28;19908;-77
2021/04/11 00:29:38;;;;;;;;;;;231.10;1433.60;;;;;;5094107;28;20024;-79
2021/04/11 00:32:07;;;;;;;20.95;7.85;;;231.10;1408.00;;;;;;5093159;28;19912;-80
2021/04/11 00:34:32;;;;;;;15.98;7.60;;;231.10;1408.00;;;;;;5092386;28;20051;-77
2021/04/11 00:36:58;;;;;;;;;;;231.10;1408.00;;;;;;5092404;28;20152;-78
2021/04/11 00:39:24;;;;;;;17.77;8.15;;;231.00;1433.60;;;;;;5091866;28;19908;-78
2021/04/11 00:41:52;;;;;;;;;;;230.90;1433.60;;;;;;5092017;28;20055;-78
2021/04/11 00:44:19;;;;;;;16.70;7.45;;;230.90;1459.20;;;;;;5092039;28;19997;-77
2021/04/11 00:46:53;;;;;;;19.27;7.28;;;230.80;1433.60;;;;;;5092864;28;20385;-78
2021/04/11 00:49:44;;;;;;;16.65;8.35;;;230.70;1459.20;;;;;;5092920;28;20389;-79
2021/04/11 00:52:13;;;;;;;16.90;7.88;;;230.70;1459.20;;;;;;5094505;28;20132;-79
2021/04/11 00:54:40;;;;;;;15.57;8.05;;;230.70;1459.20;;;;;;5112051;28;20034;-80
2021/04/11 00:57:07;;;;;;;;;;;230.60;1459.20;;;;;;5095506;28;20071;-77
2021/04/11 00:59:33;;;;;;;14.55;7.70;;;230.60;1459.20;;;;;;5094976;28;19912;-78
2021/04/11 01:01:59;;;;;;;16.73;8.52;;;205.70;1484.80;;;;;;5094955;28;20035;-79
2021/04/11 01:04:25;;;;;;;;;;;230.50;1484.80;;;;;;5112305;28;20506;-79
2021/04/11 01:07:01;;;;;;;12.85;7.35;;;230.70;1484.80;;;;;;5094771;28;19903;-79
2021/04/11 01:09:35;;;;;;;18.02;7.45;;;230.40;1510.40;;;;;;5094916;28;20031;-79
2021/04/11 01:12:03;;;;;;;14.63;7.47;;;230.50;1561.60;;;;;;5094787;28;20034;-80
2021/04/11 01:14:31;;;;;;;16.35;8.18;;;230.50;1510.40;;;;;;5094597;28;20469;-79
2021/04/11 01:16:58;;;;;;;18.40;7.55;;;230.50;1536.00;;;;;;5094675;28;20585;-79
2021/04/11 01:19:33;;;;;;;18.10;9.40;;;230.60;1510.40;;;;;;5094457;28;20027;-78
2021/04/11 01:22:09;;;;;;;15.77;6.80;;;230.60;1536.00;;;;;;5112812;28;20024;-79
2021/04/11 01:24:46;;;;;;;16.73;7.78;;;230.50;1536.00;;;;;;5095062;28;20016;-78
2021/04/11 01:27:13;;;;;;;;;;;205.70;1561.60;;;;;;5094979;28;20381;-79
2021/04/11 01:29:40;;;;;;;11.45;6.25;;;205.50;1561.60;;;;;;5112894;28;19903;-79
2021/04/11 01:32:07;;;;;;;16.73;7.38;;;205.50;1561.60;;;;;;5094558;28;20545;-80
2021/04/11 01:34:35;;;;;;;14.55;8.10;;;205.30;1561.60;;;;;;5087896;28;20019;-78
2021/04/11 01:37:02;;;;;;;17.63;8.27;;;205.20;1587.20;;;;;;5092681;28;20028;-77
2021/04/11 01:39:31;;;;;;;14.63;7.35;;;205.00;1587.20;;;;;;5111254;28;20294;-81
2021/04/11 01:41:58;;;;;;;20.13;8.73;;;180.10;1612.80;;;;;;5093539;28;20028;-78
2021/04/11 01:44:29;;;;;;;14.27;7.20;;;204.80;1638.40;;;;;;5093511;28;20081;-81
2021/04/11 01:46:56;;;;;;;13.80;8.07;;;204.90;1612.80;;;;;;5112782;28;20027;-79
2021/04/11 01:49:24;;;;;;;24.92;8.25;;;204.90;1638.40;;;;;;5093799;28;20024;-78
2021/04/11 01:52:13;;;;;;;16.58;7.80;;;204.90;1664.00;;;;;;5093897;28;20023;-78
2021/04/11 01:54:39;;;;;;;15.32;7.82;;;205.20;1638.40;;;;;;5073550;28;20028;-79
2021/04/11 01:57:27;;;;;;;17.33;6.93;;;205.20;1638.40;;;;;;5073496;28;20154;-79
2021/04/11 02:00:27;;;;;;;15.93;7.93;;;205.30;1638.40;;;;;;5073594;28;20548;-78
2021/04/11 02:03:01;;;;;;;15.07;7.57;;;205.30;1638.40;;;;;;5094462;28;20493;-79
2021/04/11 02:05:26;;;;;;;16.50;7.32;;;205.30;1638.40;;;;;;5078047;28;20028;-78
2021/04/11 02:07:56;;;;;;;;;;;205.30;1612.80;;;;;;5082613;28;20041;-78
2021/04/11 02:10:27;;;;;;;17.45;6.78;;;205.30;1612.80;;;;;;5098088;28;19950;-79
2021/04/11 02:12:54;;;;;;;13.73;7.30;;;205.30;1612.80;;;;;;5098257;28;20122;-79
2021/04/11 02:15:26;;;;;;;20.13;8.43;;;205.40;1587.20;;;;;;5098510;28;20032;-78
2021/04/11 02:17:55;;;;;;;12.02;6.55;;;205.40;1587.20;;;;;;5097761;28;20027;-79
2021/04/11 02:20:31;;;;;;;13.27;7.43;;;205.50;1587.20;;;;;;5098273;28;20496;-79
2021/04/11 02:22:57;;;;;;;13.65;7.38;;;205.60;1561.60;;;;;;5116064;28;20098;-78
2021/04/11 02:25:26;;;;;;;;;;;205.60;1561.60;;;;;;5116554;28;20459;-78
2021/04/11 02:27:54;;;;;;;14.77;8.38;;;205.60;1536.00;;;;;;5098048;28;19904;-79
2021/04/11 02:30:22;;;;;;;15.82;7.30;;;205.50;1561.60;;;;;;5115773;28;20051;-78
2021/04/11 02:32:49;;;;;;;14.05;7.57;;;205.40;1587.20;;;;;;5115986;28;20069;-78
2021/04/11 02:35:20;;;;;;;14.43;7.18;;;205.40;1561.60;;;;;;5097537;28;20123;-79
2021/04/11 02:37:49;;;;;;;17.02;6.82;;;205.40;1561.60;;;;;;5097853;28;20034;-78
2021/04/11 02:40:24;;;;;;;12.98;7.20;;;205.50;1587.20;;;;;;5097459;28;20035;-81
2021/04/11 02:42:50;;;;;;;13.88;7.30;;;205.50;1587.20;;;;;;5098004;28;20027;-79
2021/04/11 02:45:19;;;;;;;;;;;205.50;1561.60;;;;;;5095932;28;20052;-78
2021/04/11 02:47:45;;;;;;;17.42;7.63;;;205.50;1561.60;;;;;;5095320;28;19904;-78
2021/04/11 02:50:12;;;;;;;;;;;205.40;1561.60;;;;;;5102637;28;20046;-78
2021/04/11 02:52:41;;;;;;;;;;;205.50;1561.60;;;;;;5116022;28;20331;-78
2021/04/11 02:55:17;;;;;;;17.73;6.63;;;205.60;1561.60;;;;;;5115931;28;20368;-78
2021/04/11 02:57:43;;;;;;;13.40;7.07;;;205.70;1536.00;;;;;;5115638;28;20500;-81
2021/04/11 03:00:10;;;;;;;;;;;205.70;1561.60;;;;;;5097559;28;20063;-79
2021/04/11 03:02:36;;;;;;;13.02;6.05;;;205.60;1536.00;;;;;;5097525;28;20368;-78
2021/04/11 03:05:02;;;;;;;;;;;205.70;1536.00;;;;;;5131955;27;20032;-77
2021/04/11 03:07:43;;;;;;;35.53;17.15;;;205.60;1536.00;;;;;;5096945;28;20353;-78
2021/04/11 03:10:51;;;;;;;33.30;11.10;;;230.40;1536.00;;;;;;5115264;28;20147;-80
2021/04/11 03:13:18;;;;;;;27.90;12.48;;;230.50;1510.40;;;;;;5114961;28;20020;-80
2021/04/11 03:15:46;;;;;;;24.35;12.00;;;205.50;1587.20;;;;;;5114353;28;20031;-77
2021/04/11 03:18:13;;;;;;;26.25;12.77;;;205.40;1587.20;;;;;;5096999;28;20020;-78
2021/04/11 03:20:41;;;;;;;31.85;12.52;;;205.40;1587.20;;;;;;5096337;28;20050;-78
2021/04/11 03:23:10;;;;;;;24.05;11.23;;;205.40;1612.80;;;;;;5115128;28;20046;-80
2021/04/11 03:25:38;;;;;;;21.20;10.95;;;205.40;1638.40;;;;;;5114882;28;20472;-81
2021/04/11 03:28:07;;;;;;;22.17;11.20;;;205.30;1638.40;;;;;;5115127;28;20012;-78
2021/04/11 03:30:38;;;;;;;23.85;11.07;;;205.30;1612.80;;;;;;5096589;28;20027;-78
2021/04/11 03:33:08;;;;;;;27.35;12.30;;;205.30;1612.80;;;;;;5130774;27;20027;-78
2021/04/11 03:35:37;;;;;;;19.85;10.80;;;205.30;1612.80;;;;;;5096821;28;20045;-79
2021/04/11 03:38:04;;;;;;;22.25;10.95;;;205.30;1612.80;;;;;;5096290;28;20028;-80
2021/04/11 03:40:34;;;;;;;20.42;11.18;;;205.10;1638.40;;;;;;5114563;28;20404;-81
2021/04/11 03:43:13;;;;;;;23.13;9.93;;;205.00;1664.00;;;;;;5077941;28;20016;-78
2021/04/11 03:45:39;;;;;;;18.48;10.63;;;204.90;1689.60;;;;;;5093998;28;20027;-79
2021/04/11 03:48:27;;;;;;;38.28;11.40;;;204.80;1689.60;;;;;;5094419;28;20084;-79
2021/04/11 03:51:26;;;;;;;19.70;10.82;;;180.00;1664.00;;;;;;5089410;28;20056;-81
2021/04/11 03:54:10;;;;;;;20.38;9.85;;;179.70;1689.60;;;;;;4995630;28;20092;-80
2021/04/11 03:56:40;;;;;;;18.98;9.25;;;179.50;1689.60;;;;;;4996075;28;20034;-82
2021/04/11 03:59:07;;;;;;;23.13;9.73;;;179.70;1689.60;;;;;;5012055;28;20029;-79
2021/04/11 04:01:41;;;;;;;24.33;9.70;;;180.10;1638.40;;;;;;5012095;28;20072;-80
2021/04/11 04:04:14;;;;;;;32.95;11.25;;;205.00;1587.20;;;;;;4995499;28;20099;-79
2021/04/11 04:07:08;;;;;;;20.77;10.52;;;205.20;1561.60;;;;;;4995229;28;20041;-80
2021/04/11 04:09:34;;;;;;;22.83;10.77;;;204.90;1638.40;;;;;;5011493;28;20133;-79
2021/04/11 04:12:00;;;;;;;20.98;9.80;;;205.10;1664.00;;;;;;4995409;28;20029;-81
2021/04/11 04:14:40;;;;;;;;;;;205.00;1664.00;;;;;;5012535;28;20028;-80
2021/04/11 04:17:17;;;;;;;27.02;10.90;;;205.00;1664.00;;;;;;5012432;28;19905;-80
2021/04/11 04:19:55;;;;;;;18.65;8.05;;;205.10;1638.40;;;;;;5011994;28;20037;-80
2021/04/11 04:22:46;;;;;;;17.30;8.02;;;204.90;1638.40;;;;;;4995376;28;20076;-82
2021/04/11 04:25:14;;;;;;;16.35;7.65;;;205.10;1612.80;;;;;;5011803;28;20030;-82
2021/04/11 04:27:55;;;;;;;14.88;7.05;;;204.80;1612.80;;;;;;5012526;28;20026;-83
2021/04/11 04:30:29;;;;;;;15.60;6.53;;;204.90;1664.00;;;;;;5048222;28;20032;-81
2021/04/11 04:33:13;;;;;;;13.52;7.07;;;204.80;1638.40;;;;;;5071668;28;20024;-78
2021/04/11 04:36:10;;;;;;;15.63;7.10;;;180.00;1638.40;;;;;;5073213;28;20028;-78
2021/04/11 04:38:58;;;;;;;14.00;7.05;;;180.10;1664.00;;;;;;5055184;28;20025;-79
2021/04/11 04:41:35;;;;;;;14.65;6.65;;;205.00;1638.40;;;;;;5077386;28;20024;-78
2021/04/11 04:44:01;;;;;;;;;;;205.20;1612.80;;;;;;5075181;28;20093;-79
2021/04/11 04:46:32;;;;;;;18.52;7.95;;;205.20;1612.80;;;;;;5075163;28;20353;-78
2021/04/11 04:49:11;;;;;;;11.52;7.32;;;205.30;1664.00;;;;;;5092723;28;20028;-80
2021/04/11 04:51:59;;;;;;;12.02;5.95;;;205.40;1664.00;;;;;;5112128;28;20127;-78
2021/04/11 04:54:31;;;;;;;12.20;6.15;;;205.40;1664.00;;;;;;5113375;28;20012;-76
2021/04/11 04:57:19;;;;;;;13.35;6.25;;;205.40;1612.80;;;;;;5094864;28;20080;-78
2021/04/11 05:00:02;;;;;;;11.75;5.90;;;205.50;1664.00;;;;;;5112902;28;20484;-79
2021/04/11 05:02:36;;;;;;;13.15;6.93;;;205.50;1664.00;;;;;;5113255;28;20385;-80
2021/04/11 05:05:06;;;;;;;11.07;6.70;;;205.60;1689.60;;;;;;5094895;28;20047;-83
2021/04/11 05:07:37;;;;;;;11.85;6.47;;;230.40;1664.00;;;;;;5094626;28;20019;-78
2021/04/11 05:10:17;;;;;;;11.70;6.30;;;230.50;1664.00;;;;;;5094988;28;20031;-78
2021/04/11 05:12:58;;;;;;;12.15;6.78;;;230.40;1664.00;;;;;;5094562;28;20047;-78
2021/04/11 05:15:31;;;;;;;16.80;7.55;;;230.40;1664.00;;;;;;5094634;28;20038;-76
2021/04/11 05:17:58;;;;;;;15.10;6.28;;;230.40;1689.60;;;;;;5094603;28;20027;-79
2021/04/11 05:20:35;;;;;;;13.68;7.50;;;230.40;1612.80;;;;;;5128618;27;20477;-79
2021/04/11 05:23:22;;;;;;;14.43;6.28;;;230.50;1638.40;;;;;;5094629;28;20031;-77
2021/04/11 05:26:03;;;;;;;19.70;8.02;;;230.60;1638.40;;;;;;5094529;28;20126;-78
2021/04/11 05:28:58;;;;;;;14.90;7.50;;;230.60;1638.40;;;;;;5094393;28;20028;-78
2021/04/11 05:31:29;;;;;;;10.50;6.55;;;230.80;1587.20;;;;;;5089133;28;20039;-79
2021/04/11 05:33:56;;;;;;;21.85;8.20;;;230.80;1536.00;;;;;;5112925;28;20507;-78
2021/04/11 05:36:28;;;;;;;19.02;7.50;;;230.90;1536.00;;;;;;5094096;28;20027;-79
2021/04/11 05:39:09;;;;;;;14.18;7.72;;;231.00;1536.00;;;;;;5094092;28;20020;-78
2021/04/11 05:41:54;;;;;;;16.25;8.13;;;231.00;1510.40;;;;;;5088149;28;20032;-79
2021/04/11 05:44:46;;;;;;;21.95;13.18;;;231.10;1510.40;;;;;;5074165;28;20031;-84
2021/04/11 05:47:24;;;;;;;26.65;11.02;;;231.30;1510.40;;;;;;5091219;28;20034;-79
2021/04/11 05:50:16;;;;;;;16.17;7.35;;;256.00;1510.40;;;;;;5107560;28;20035;-79
2021/04/11 05:52:47;;;;;;;13.77;7.45;;;256.20;1510.40;;;;;;5091558;28;20027;-80
2021/04/11 05:55:16;;;;;;;12.40;6.50;;;256.40;1510.40;;;;;;5094216;28;20039;-84
2021/04/11 05:57:53;;;;;;;14.90;7.95;;;256.50;1510.40;;;;;;5109666;28;20047;-83
2021/04/11 06:00:25;;;;;;;16.25;7.25;;;256.70;1484.80;;;;;;5094020;28;20042;-82
2021/04/11 06:02:56;;;;;;;14.80;7.68;;;256.90;1433.60;;;;;;5094296;28;20019;-83
2021/04/11 06:06:06;;;;;;;11.50;6.15;;;281.60;1408.00;;;;;;5094564;28;20076;-82
2021/04/11 06:08:39;;;;;;;11.23;5.95;;;281.80;1408.00;;;;;;5084886;28;20032;-82
2021/04/11 06:11:21;;;;;;;13.18;5.80;;;281.90;1356.80;;;;;;5105502;28;20473;-79
2021/04/11 06:14:13;;;;;;;10.27;6.07;;;282.00;1356.80;;;;;;5110070;28;20107;-82
2021/04/11 06:16:39;;;;;;;15.70;7.30;;;282.10;1331.20;;;;;;5111857;28;20091;-80
2021/04/11 06:19:07;;;;;;;10.90;6.13;;;282.30;1382.40;;;;;;5093915;28;20453;-83
2021/04/11 06:21:38;;;;;;;12.32;6.25;;;282.40;1331.20;;;;;;5094169;28;20114;-83
2021/04/11 06:24:07;;;;;;;14.40;6.13;;;307.20;1356.80;;;;;;5110016;28;20098;-84
2021/04/11 06:27:05;;;;;;;13.65;6.53;;;307.30;1331.20;;;;;;5093694;28;20034;-83
2021/04/11 06:29:33;;;;;;;;;;;307.30;1305.60;;;;;;5012053;28;20036;-80
2021/04/11 06:32:05;;;;;;;11.02;5.88;;;307.50;1305.60;;;;;;5013183;28;19936;-82
2021/04/11 06:34:38;;;;;;;13.32;5.90;;;307.50;1254.40;;;;;;5029869;28;20034;-82
2021/04/11 06:37:07;;;;;;;16.88;6.35;;;307.60;1280.00;;;;;;5029773;28;20107;-82
2021/04/11 06:39:40;;;;;;;12.00;6.03;;;307.80;1280.00;;;;;;5012921;28;20030;-82
2021/04/11 06:42:17;;;;;;;14.20;6.80;;;307.90;1254.40;;;;;;5045986;28;20004;-83
2021/04/11 06:44:48;;;;;;;11.82;6.93;;;308.10;1280.00;;;;;;5010478;28;20198;-81
2021/04/11 06:47:23;;;;;;;14.23;7.38;;;308.10;1228.80;;;;;;5029427;28;20076;-81
2021/04/11 06:50:08;;;;;;;12.68;5.57;;;332.90;1254.40;;;;;;5028958;28;20053;-80
2021/04/11 06:52:58;;;;;;;14.23;6.60;;;333.00;1228.80;;;;;;5033392;28;20418;-82
2021/04/11 06:55:42;;;;;;;11.45;6.47;;;333.20;1228.80;;;;;;5032593;28;20136;-86
2021/04/11 06:58:34;;;;;;;14.82;6.18;;;333.20;1228.80;;;;;;5032982;28;20021;-81
2021/04/11 07:01:09;;;;;;;11.63;6.45;;;333.40;1228.80;;;;;;5032096;28;20041;-81
2021/04/11 07:04:06;;;;;;;13.57;6.72;;;333.40;1177.60;;;;;;5032922;28;20014;-81
2021/04/11 07:06:50;;;;;;;;;;;333.50;1203.20;;;;;;5042666;28;20093;-81
2021/04/11 07:09:47;;;;;;;12.57;6.97;;;333.50;1177.60;;;;;;5072223;28;19904;-81
2021/04/11 07:12:40;;;;;;;15.30;6.50;;;333.50;1203.20;;;;;;5080798;28;20034;-81
2021/04/11 07:15:26;;;;;;;14.43;6.53;;;333.70;1203.20;;;;;;5080838;28;20021;-81
2021/04/11 07:17:55;;;;;;;16.25;7.47;;;333.50;1203.20;;;;;;5080993;28;20025;-80
2021/04/11 07:20:29;;;;;;;13.07;8.07;;;333.70;1254.40;;;;;;5083245;28;20048;-80
2021/04/11 07:23:28;;;;;;;16.92;8.10;;;358.50;1203.20;;;;;;5085705;28;20603;-80
2021/04/11 07:26:33;;;;;;;15.65;7.50;;;358.60;1203.20;;;;;;5082792;28;20024;-80
2021/04/11 07:29:17;;;;;;;12.18;6.97;;;358.80;1203.20;;;;;;5083634;28;20024;-81
2021/04/11 07:32:01;;;;;;;11.48;6.50;;;358.70;1152.00;;;;;;5083499;28;20500;-81
2021/04/11 07:34:41;;;;;;;12.68;7.32;;;358.90;1177.60;;;;;;5081195;28;20107;-81
2021/04/11 07:37:19;;;;;;;13.10;6.43;;;359.20;1177.60;;;;;;5080527;28;20032;-81
2021/04/11 07:40:15;;;;;;;13.38;6.32;;;384.00;1152.00;;;;;;5084205;28;20052;-81
2021/04/11 07:43:02;;;;;;;13.38;6.00;;;384.00;1126.40;;;;;;5086465;28;20865;-80
2021/04/11 07:46:06;;;;;;;15.00;6.78;;;384.20;1126.40;;;;;;5114701;28;20023;-80
2021/04/11 07:48:52;;;;;;;12.65;6.10;;;384.60;1152.00;;;;;;4992643;28;20169;-81
2021/04/11 07:51:36;;;;;;;19.77;6.47;;;384.60;1100.80;;;;;;5003934;28;20054;-78
2021/04/11 07:54:12;;;;;;;14.30;6.95;;;384.60;1100.80;;;;;;5003315;28;20275;-78
2021/04/11 07:57:02;;;;;;;9.52;6.07;;;384.70;1100.80;;;;;;5002977;28;20068;-79
2021/04/11 07:59:58;;;;;;;12.50;6.18;;;384.90;1075.20;;;;;;4976425;28;20105;-79
2021/04/11 08:02:41;;;;;;;12.60;5.90;;;409.60;1075.20;;;;;;4992698;28;20823;-77
2021/04/11 08:05:16;;;;;;;9.93;5.47;;;384.90;1075.20;;;;;;4976757;28;20038;-78
2021/04/11 08:07:54;;;;;;;15.52;5.75;;;384.90;1075.20;;;;;;4976509;28;20031;-79
2021/04/11 08:10:54;;;;;;;15.40;6.22;;;409.60;1100.80;;;;;;4976384;28;20026;-79
2021/04/11 08:13:35;;;;;;;14.27;6.00;;;409.60;1100.80;;;;;;4976553;28;20066;-79
2021/04/11 08:16:21;;;;;;;17.30;6.45;;;409.70;1100.80;;;;;;4976170;28;20029;-78
2021/04/11 08:19:06;;;;;;;;;;;410.00;1075.20;;;;;;4992742;28;20116;-79
2021/04/11 08:21:37;;;;;;;11.82;5.45;;;410.20;1075.20;;;;;;4975517;28;19913;-77
2021/04/11 08:24:11;;;;;;;14.82;5.30;;;410.50;1075.20;;;;;;4992217;28;20038;-78
2021/04/11 08:26:45;;;;;;;12.30;4.93;;;410.50;1075.20;;;;;;5093421;28;20020;-78
2021/04/11 08:29:30;;;;;;;16.02;5.78;;;435.30;1049.60;;;;;;5075377;28;20020;-78
2021/04/11 08:32:33;;;;;;;11.95;5.32;;;435.50;1075.20;;;;;;5105136;28;20099;-78
2021/04/11 08:35:27;;;;;;;10.38;4.72;;;435.50;1075.20;;;;;;5110985;28;20016;-79
2021/04/11 08:38:08;;;;;;;10.65;5.63;;;435.70;1024.00;;;;;;5011332;28;20054;-78
2021/04/11 08:41:10;;;;;;;10.55;4.70;;;435.80;1024.00;;;;;;5011061;28;20038;-78
2021/04/11 08:43:51;;;;;;;11.45;4.75;;;435.90;998.40;;;;;;5011547;28;20114;-81
2021/04/11 08:46:35;;;;;;;11.63;4.95;;;436.10;972.80;;;;;;5011562;28;20026;-80
2021/04/11 08:49:28;;;;;;;8.07;4.53;;;436.10;972.80;;;;;;5011336;28;20045;-80
2021/04/11 08:52:01;;;;;;;13.00;4.70;;;460.80;1024.00;;;;;;5011196;28;20042;-78
2021/04/11 08:54:33;;;;;;;8.18;4.72;;;461.00;998.40;;;;;;5010165;28;20384;-77
2021/04/11 08:57:05;;;;;;;22.55;5.88;;;461.20;947.20;;;;;;5010140;28;20026;-79
2021/04/11 08:59:56;;;;;;;8.63;4.78;;;461.40;1024.00;;;;;;4993826;28;20026;-80
2021/04/11 09:02:28;;;;;;;13.07;5.15;;;461.40;972.80;;;;;;4994548;28;20042;-76
2021/04/11 09:04:59;;;;;;;10.32;4.75;;;461.30;947.20;;;;;;5011062;28;20460;-76
2021/04/11 09:07:43;;;;;;;8.23;4.68;;;461.40;947.20;;;;;;4994152;28;20042;-79
2021/04/11 09:10:15;;;;;;;8.57;4.35;;;461.30;947.20;;;;;;5004578;28;20030;-80
2021/04/11 09:13:08;;;;;;;12.18;5.03;;;461.10;896.00;;;;;;4992717;28;20435;-79
2021/04/11 09:15:59;;;;;;;12.50;4.95;;;461.10;896.00;;;;;;5094209;28;20090;-78
2021/04/11 09:19:19;;;;;;;13.77;7.15;;;461.10;921.60;;;;;;5092591;28;20059;-78
2021/04/11 09:22:07;;;;;;;9.98;4.97;;;461.30;972.80;;;;;;4994496;28;20042;-78
2021/04/11 09:25:03;;;;;;;15.35;5.25;;;461.40;921.60;;;;;;5010545;28;20048;-79
2021/04/11 09:27:47;;;;;;;10.13;4.50;;;461.50;921.60;;;;;;5010673;28;20042;-78
2021/04/11 09:30:12;;;;;;;10.98;5.38;;;461.70;896.00;;;;;;5010806;28;20029;-78
2021/04/11 09:33:02;;;;;;;11.27;4.57;;;486.50;921.60;;;;;;5010770;28;20541;-78
2021/04/11 09:36:03;;;;;;;10.93;4.55;;;486.70;793.60;;;;;;5009970;28;20054;-79
2021/04/11 09:38:37;;;;;;;11.45;4.47;;;487.00;896.00;;;;;;4980723;28;20027;-79
2021/04/11 09:41:18;;;;;;;7.60;3.50;;;487.00;844.80;;;;;;4980559;28;20038;-78
2021/04/11 09:44:18;;;;;;;11.77;4.18;;;486.70;793.60;;;;;;4981650;28;20484;-78
2021/04/11 09:46:43;;;;;;;9.30;3.78;;;486.80;844.80;;;;;;4982124;28;20075;-79
2021/04/11 09:49:39;;;;;;;14.85;4.55;;;486.70;844.80;;;;;;4971346;28;20039;-77
2021/04/11 09:52:29;;;;;;;12.77;4.00;;;486.70;819.20;;;;;;4955110;28;20046;-78
2021/04/11 09:55:26;;;;;;;10.30;4.50;;;486.80;819.20;;;;;;4986890;28;20040;-79
2021/04/11 09:58:26;;;;;;;10.77;4.85;;;486.70;819.20;;;;;;5069850;28;20028;-78
2021/04/11 10:01:36;;;;;;;9.80;4.68;;;487.00;844.80;;;;;;5069713;28;20432;-77
2021/04/11 10:04:14;;;;;;;10.88;4.60;;;487.20;793.60;;;;;;4990359;28;20030;-79
2021/04/11 10:07:01;;;;;;;10.57;4.85;;;487.00;819.20;;;;;;4990786;28;20526;-77
2021/04/11 10:10:08;;;;;;;10.18;5.40;;;486.80;819.20;;;;;;4990810;28;20823;-79
2021/04/11 10:12:55;;;;;;;11.93;4.10;;;487.00;819.20;;;;;;4913424;29;20469;-76
2021/04/11 10:15:34;;;;;;;8.60;4.35;;;487.00;844.80;;;;;;4927043;29;20040;-79
2021/04/11 10:18:31;;;;;;;13.38;5.57;;;487.00;819.20;;;;;;4932283;29;20032;-79
2021/04/11 10:21:15;;;;;;;15.00;5.32;;;486.90;819.20;;;;;;4931971;29;20056;-76
2021/04/11 10:23:55;;;;;;;13.68;6.93;;;486.80;870.40;;;;;;4933893;29;20034;-77
2021/04/11 10:26:30;;;;;;;10.95;4.88;;;486.80;870.40;;;;;;4935920;29;20835;-77
2021/04/11 10:29:09;;;;;;;17.10;7.18;;;486.80;819.20;;;;;;4920216;29;20513;-77
2021/04/11 10:32:12;;;;;;;11.63;4.88;;;486.80;844.80;;;;;;4936073;29;20032;-78
2021/04/11 10:35:12;;;;;;;16.23;6.88;;;487.00;793.60;;;;;;4936233;29;20073;-77
2021/04/11 10:37:43;;;;;;;12.23;5.13;;;487.10;793.60;;;;;;4917301;29;20044;-77
2021/04/11 10:40:49;;;;;;;8.52;4.47;;;487.10;768.00;;;;;;4915978;29;20042;-77
2021/04/11 10:43:26;;;;;;;13.20;7.13;;;512.00;793.60;;;;;;4954976;28;20484;-78
2021/04/11 10:46:11;;;;;;;11.70;5.28;;;512.30;768.00;;;;;;4975439;28;20037;-78
2021/04/11 10:48:46;;;;;;;17.73;7.70;;;512.70;742.40;;;;;;5024367;28;20538;-77
2021/04/11 10:51:20;;;;;;;17.52;8.43;;;537.70;819.20;;;;;;5024521;28;20144;-77
2021/04/11 10:54:14;;;;;;;12.20;5.47;;;537.60;742.40;;;;;;5014613;28;20041;-77
2021/04/11 10:56:51;;;;;;;10.10;4.93;;;512.90;716.80;;;;;;5020311;28;20026;-76
2021/04/11 10:59:41;;;;;;;12.75;6.50;;;512.60;716.80;;;;;;5021071;28;20036;-77
2021/04/11 11:02:28;;;;;;;12.30;7.85;;;512.60;742.40;;;;;;5026791;28;20083;-77
2021/04/11 11:04:56;;;;;;;15.88;9.98;;;512.60;742.40;;;;;;5013161;28;20081;-79
2021/04/11 11:07:43;;;;;;;13.52;6.25;;;512.60;742.40;;;;;;5030729;28;20029;-78
2021/04/11 11:10:33;;;;;;;13.05;4.65;;;512.70;768.00;;;;;;5024247;28;20034;-79
2021/04/11 11:13:18;;;;;;;13.63;7.13;;;512.30;716.80;;;;;;5058346;28;20030;-79
2021/04/11 11:16:03;;;;;;;15.07;4.75;;;512.40;742.40;;;;;;5094485;28;20477;-78
2021/04/11 11:18:50;;;;;;;16.48;6.50;;;512.30;716.80;;;;;;5113293;28;20016;-79
2021/04/11 11:21:30;;;;;;;10.45;6.10;;;512.40;691.20;;;;;;5113608;28;20043;-81
2021/04/11 11:24:30;;;;;;;8.68;4.45;;;512.50;742.40;;;;;;5114021;28;20091;-80
2021/04/11 11:27:19;;;;;;;19.70;7.45;;;512.50;665.60;;;;;;5113782;28;20027;-79
2021/04/11 11:30:27;;;;;;;13.27;5.53;;;512.60;691.20;;;;;;5113065;28;20023;-78
2021/04/11 11:32:58;;;;;;;30.50;13.82;;;512.70;793.60;;;;;;5108309;28;20096;-80
2021/04/11 11:35:24;;;;;;;24.50;13.63;;;512.80;768.00;;;;;;5109833;28;20020;-79
2021/04/11 11:38:07;;;;;;;27.30;16.15;;;512.70;742.40;;;;;;5094867;28;20032;-79
2021/04/11 11:40:42;;;;;;;16.92;6.63;;;512.90;742.40;;;;;;5095007;28;20125;-79
2021/04/11 11:43:21;;;;;;;9.77;4.70;;;537.60;742.40;;;;;;5094649;28;20059;-79
2021/04/11 11:46:06;;;;;;;11.95;5.97;;;537.70;691.20;;;;;;5092737;28;20020;-78
2021/04/11 11:49:00;;;;;;;15.43;6.82;;;537.90;691.20;;;;;;5093945;28;20024;-79
2021/04/11 11:51:38;;;;;;;13.90;7.15;;;538.00;716.80;;;;;;5094916;28;20043;-79
2021/04/11 11:54:06;;;;;;;7.57;4.25;;;538.10;716.80;;;;;;5095016;28;20028;-81
2021/04/11 11:56:37;;;;;;;9.52;5.25;;;538.20;793.60;;;;;;5093364;28;20076;-78
2021/04/11 11:59:25;;;;;;;25.52;12.45;;;538.40;716.80;;;;;;5096098;28;20111;-80
2021/04/11 12:02:03;;;;;;;24.20;10.48;;;538.30;716.80;;;;;;5113957;28;20023;-79
2021/04/11 12:04:44;;;;;;;16.40;8.05;;;538.50;691.20;;;;;;5095655;28;20048;-79
2021/04/11 12:07:39;;;;;;;13.55;7.03;;;538.30;691.20;;;;;;5113487;28;20102;-78
2021/04/11 12:10:19;;;;;;;13.10;5.28;;;538.00;691.20;;;;;;5011330;28;20499;-78
2021/04/11 12:13:08;;;;;;;18.35;7.43;;;537.90;716.80;;;;;;5019650;28;20046;-81
2021/04/11 12:16:05;;;;;;;9.18;4.22;;;538.00;742.40;;;;;;5031005;28;20045;-80
2021/04/11 12:18:51;;;;;;;14.50;7.82;;;537.80;691.20;;;;;;5031542;28;20479;-80
2021/04/11 12:21:21;;;;;;;13.48;5.80;;;537.80;716.80;;;;;;5029200;28;20060;-79
2021/04/11 12:24:03;;;;;;;6.72;3.92;;;537.60;716.80;;;;;;5031303;28;20022;-80
2021/04/11 12:26:33;;;;;;;8.75;5.10;;;537.70;716.80;;;;;;5031391;28;20040;-79
2021/04/11 12:29:11;;;;;;;11.65;3.78;;;537.60;716.80;;;;;;5021391;28;20026;-80
2021/04/11 12:31:52;;;;;;;12.45;5.38;;;537.80;691.20;;;;;;5014879;28;20029;-79
2021/04/11 12:34:39;;;;;;;14.95;5.13;;;537.80;691.20;;;;;;5031000;28;20034;-81
2021/04/11 12:37:17;;;;;;;8.95;5.15;;;537.80;716.80;;;;;;5031472;28;20344;-81
2021/04/11 12:39:45;;;;;;;13.38;6.07;;;537.90;716.80;;;;;;5023452;28;20034;-79
2021/04/11 12:42:31;;;;;;;10.73;5.07;;;538.00;691.20;;;;;;5030668;28;20045;-79
2021/04/11 12:45:07;;;;;;;12.98;6.30;;;538.10;691.20;;;;;;5029954;28;20087;-81
2021/04/11 12:47:40;;;;;;;;;;;538.10;742.40;;;;;;5082398;28;20319;-79
2021/04/11 12:50:33;;;;;;;9.68;5.35;;;538.00;716.80;;;;;;5113590;27;19958;-79
2021/04/11 12:53:23;;;;;;;13.38;6.20;;;537.80;716.80;;;;;;5091104;28;20051;-78
2021/04/11 12:55:53;;;;;;;12.85;5.45;;;537.60;716.80;;;;;;5092740;28;20020;-79
2021/04/11 12:58:30;;;;;;;9.40;3.65;;;537.60;691.20;;;;;;5113267;28;20012;-79
2021/04/11 13:01:01;;;;;;;8.90;4.18;;;537.60;691.20;;;;;;5095290;28;20042;-79
2021/04/11 13:03:34;;;;;;;10.48;3.88;;;512.70;691.20;;;;;;5095087;28;20026;-79
2021/04/11 13:06:10;;;;;;;7.32;4.15;;;512.90;691.20;;;;;;5113399;28;20028;-79
2021/04/11 13:08:36;;;;;;;;;;;512.90;665.60;;;;;;5095240;28;20030;-79
2021/04/11 13:11:15;;;;;;;9.37;3.97;;;512.90;691.20;;;;;;5095326;28;19908;-80
2021/04/11 13:14:04;;;;;;;12.43;4.53;;;512.90;665.60;;;;;;5094911;28;20115;-79